Aérodrome :
LOGIN :

S'inscrire | Disclaimer

   EN    FR    IT 

 










Légende :    VFR   VFR Marginal   IFR   IFR Intensif   IFR Très Intensif
Visi : 
Plafond : 
>= 8 km
>= 3000ft
5 à 8 km
1000 à 3000 ft
1500m à 5 km
500 à 1000 ft
800 à 1500m
200 à 500 ft
< 800m
< 200 ft
Symboles :   Orages  Brouillard  Fortes neiges  Fortes précipitations  Vent > 20 kt
SIGMETs :   Divers  Orages  Givrage  Turbulence  Onde Orograph.  Cendres Volcan.







- Altitude de l'aérodrome : 158 ft
- Code IATA : QAR


EHDL - Deelen Airbase

DERNIER METAR :
  • 251225Z AUTO VRB01KT 9999 FEW059 BKN340 15/06 Q1039 BLU

METARs EXPIRÉS :
  • 251155Z AUTO VRB01KT 9999 BKN055 OVC060 14/06 Q1039 BLU
  • 251125Z AUTO VRB02KT 9999 BKN390 14/06 Q1039 BLU
  • 251055Z AUTO 34004KT 220V350 9999 OVC031 15/06 Q1039 BLU
  • 251025Z AUTO VRB03KT 9999 SCT029 SCT033 15/07 Q1039 BLU
  • 250955Z AUTO VRB04KT 9999 BKN027 14/07 Q1039 BLU

TAF TAF EHDL
Valide du 25 à 09h jusqu'au 25 à 21h UTC


250828Z 2509/2521 VRB01KT CAVOK
BECMG 2511/2514 18004KT SCT030
Pas de NOTAMs connus pour ce terrain.



MET'MAP, la Météo Aéronautique d'un coup d'oeil ! - Copyright ORBIFLY Décembre 2007 - Disclaimer

ORBIFLY MET'MAP TEAM :

Programmation & Développement : Alexandra Zaïnal
Conception & Développement : Baudouin d'Aumeries
Co-Programmation & Développement : Marc-Olivier Méhu
Soutien technique & logistique : Manuel Goepfert

Contact : metmap@orbifly.com




SOURCES & CREDITS :

   NOAA